createdAt,value
2022-10-26T00:02:39.401Z,100573.72
2022-10-26T00:07:42.182Z,100570.19
2022-10-26T00:12:48.272Z,100573.28
2022-10-26T00:17:52.022Z,100578.06
2022-10-26T00:22:54.938Z,100571.53
2022-10-26T00:27:57.696Z,100576.13
2022-10-26T00:33:00.535Z,100574.63
2022-10-26T00:38:03.356Z,100575.38
2022-10-26T00:43:36.190Z,100579.00
2022-10-26T00:48:44.812Z,100575.97
2022-10-26T00:53:48.065Z,100568.59
2022-10-26T00:58:51.246Z,100572.38
2022-10-26T01:03:54.290Z,100575.00
2022-10-26T01:08:57.226Z,100567.91
2022-10-26T01:14:01.734Z,100566.22
2022-10-26T01:19:19.763Z,100569.56
2022-10-26T01:24:50.692Z,100563.72
2022-10-26T01:30:44.026Z,100560.84
2022-10-26T01:36:02.007Z,100559.06
2022-10-26T01:41:10.949Z,100551.84
2022-10-26T01:46:14.999Z,100549.22
2022-10-26T01:51:19.385Z,100543.56
2022-10-26T01:56:25.443Z,100545.50
2022-10-26T02:01:52.111Z,100554.16
2022-10-26T02:07:05.524Z,100544.81
2022-10-26T02:12:17.083Z,100540.75
2022-10-26T02:17:36.920Z,100537.69
2022-10-26T02:22:45.414Z,100536.34
2022-10-26T02:27:52.791Z,100543.03
2022-10-26T02:32:57.850Z,100542.78
2022-10-26T02:38:03.250Z,100542.38
2022-10-26T02:43:10.853Z,100555.03
2022-10-26T02:48:14.447Z,100556.41
2022-10-26T02:53:23.209Z,100563.25
2022-10-26T02:58:33.539Z,100557.78
2022-10-26T03:03:36.459Z,100564.47
2022-10-26T03:08:39.247Z,100565.59
2022-10-26T03:13:42.144Z,100556.97
2022-10-26T03:18:44.926Z,100571.03
2022-10-26T03:23:48.087Z,100575.50
2022-10-26T03:28:50.923Z,100579.53
2022-10-26T03:33:53.769Z,100584.56
2022-10-26T03:38:56.540Z,100584.00
2022-10-26T03:43:59.401Z,100583.75
2022-10-26T03:49:02.246Z,100582.09
2022-10-26T03:54:05.812Z,100594.06
2022-10-26T03:59:08.617Z,100603.69
2022-10-26T04:04:11.483Z,100604.69
2022-10-26T04:09:14.459Z,100599.06
2022-10-26T04:14:17.276Z,100605.09
2022-10-26T04:19:20.114Z,100623.59
2022-10-26T04:24:22.981Z,100612.72
2022-10-26T04:29:25.840Z,100610.78
2022-10-26T04:34:28.628Z,100611.47
2022-10-26T04:39:31.464Z,100595.03
2022-10-26T04:44:34.229Z,100599.09
2022-10-26T04:49:37.032Z,100600.78
2022-10-26T04:54:39.850Z,100609.09
2022-10-26T04:59:42.525Z,100615.94
2022-10-26T05:04:45.389Z,100606.88
2022-10-26T05:09:48.284Z,100614.13
2022-10-26T05:14:51.107Z,100610.78
2022-10-26T05:19:55.851Z,100614.94
2022-10-26T05:24:58.686Z,100630.69
2022-10-26T05:30:01.500Z,100639.16
2022-10-26T05:35:05.122Z,100632.75
2022-10-26T05:40:08.526Z,100653.22
2022-10-26T05:45:12.487Z,100651.69
2022-10-26T05:50:15.366Z,100648.06
2022-10-26T05:55:24.193Z,100645.13
2022-10-26T06:00:28.642Z,100652.66
2022-10-26T06:05:35.769Z,100656.72
2022-10-26T06:10:39.413Z,100662.28
2022-10-26T06:15:57.285Z,100659.66
2022-10-26T06:21:54.412Z,100665.38
2022-10-26T06:27:24.918Z,100670.25
2022-10-26T06:32:28.282Z,100671.66
2022-10-26T06:37:31.880Z,100675.78
2022-10-26T06:42:35.032Z,100685.13
2022-10-26T06:47:46.243Z,100679.19
2022-10-26T06:52:58.202Z,100685.81
2022-10-26T06:58:02.290Z,100692.63
2022-10-26T07:03:05.142Z,100691.94
2022-10-26T07:08:07.940Z,100689.59
2022-10-26T07:13:11.324Z,100682.25
2022-10-26T07:18:14.545Z,100686.06
2022-10-26T07:23:17.250Z,100685.03
2022-10-26T07:28:20.197Z,100676.41
2022-10-26T07:33:23.126Z,100677.41
2022-10-26T07:38:25.730Z,100680.16
2022-10-26T07:43:28.515Z,100672.25
2022-10-26T07:48:31.109Z,100670.41
2022-10-26T07:53:33.984Z,100681.66
2022-10-26T07:58:37.312Z,100669.44
2022-10-26T08:03:40.657Z,100672.75
2022-10-26T08:08:46.418Z,100667.16
2022-10-26T08:13:54.637Z,100668.91
2022-10-26T08:18:57.689Z,100665.09
2022-10-26T08:24:00.679Z,100672.00
2022-10-26T08:29:03.744Z,100669.00
2022-10-26T08:34:06.624Z,100666.78
2022-10-26T08:39:09.575Z,100662.94
2022-10-26T08:44:36.335Z,100672.41
2022-10-26T08:50:06.579Z,100670.56
2022-10-26T08:55:18.947Z,100670.66
2022-10-26T09:00:23.430Z,100671.44
2022-10-26T09:05:36.880Z,100673.28
2022-10-26T09:10:58.749Z,100676.31
2022-10-26T09:16:20.237Z,100683.50
2022-10-26T09:21:36.129Z,100674.56
2022-10-26T09:26:55.596Z,100672.53
2022-10-26T09:32:01.136Z,100680.81
2022-10-26T09:37:20.287Z,100682.19
2022-10-26T09:42:33.559Z,100682.72
2022-10-26T09:47:39.084Z,100683.66
2022-10-26T09:52:41.938Z,100684.53
2022-10-26T09:57:50.420Z,100680.38
2022-10-26T10:02:58.203Z,100689.09
2022-10-26T10:08:13.172Z,100682.97
2022-10-26T10:13:17.522Z,100680.09
2022-10-26T10:18:24.083Z,100679.91
2022-10-26T10:23:29.013Z,100686.38
2022-10-26T10:28:33.441Z,100666.75
2022-10-26T10:33:40.822Z,100676.47
2022-10-26T10:38:45.141Z,100668.84
2022-10-26T10:44:07.413Z,100663.31
2022-10-26T10:49:27.859Z,100665.81
2022-10-26T10:54:39.339Z,100665.81
2022-10-26T10:59:49.369Z,100659.41
2022-10-26T11:04:56.585Z,100657.38
2022-10-26T11:10:02.920Z,100657.63
2022-10-26T11:15:10.552Z,100660.31
2022-10-26T11:20:17.795Z,100650.59
2022-10-26T11:25:29.061Z,100661.53
2022-10-26T11:30:34.091Z,100655.97
2022-10-26T11:35:49.173Z,100655.97
2022-10-26T11:41:03.233Z,100649.56
2022-10-26T11:46:16.559Z,100656.72
2022-10-26T11:51:35.845Z,100649.28
2022-10-26T11:56:44.398Z,100640.78
2022-10-26T12:01:52.544Z,100648.00
2022-10-26T12:06:58.901Z,100646.38
2022-10-26T12:12:09.675Z,100645.09
2022-10-26T12:17:15.475Z,100659.13
2022-10-26T12:22:19.904Z,100654.16
2022-10-26T12:27:41.080Z,100653.94
2022-10-26T12:32:43.975Z,100664.47
2022-10-26T12:37:46.808Z,100652.69
2022-10-26T12:42:49.599Z,100655.22
2022-10-26T12:47:54.309Z,100650.25
2022-10-26T12:53:10.909Z,100650.09
2022-10-26T12:58:23.613Z,100651.97
2022-10-26T13:03:48.458Z,100652.38
2022-10-26T13:08:57.838Z,100650.53
2022-10-26T13:14:09.072Z,100650.97
2022-10-26T13:19:30.365Z,100650.16
2022-10-26T13:24:35.008Z,100649.69
2022-10-26T13:30:15.410Z,100648.88
2022-10-26T13:35:20.244Z,100654.28
2022-10-26T13:40:28.414Z,100654.72
2022-10-26T13:45:39.355Z,100657.22
2022-10-26T13:50:52.072Z,100654.13
2022-10-26T13:56:02.297Z,100656.59
2022-10-26T14:01:10.409Z,100657.19
2022-10-26T14:06:38.891Z,100650.13
2022-10-26T14:11:53.133Z,100650.25
2022-10-26T14:16:56.731Z,100654.78
2022-10-26T14:22:00.109Z,100663.19
2022-10-26T14:27:02.939Z,100659.03
2022-10-26T14:32:34.048Z,100663.56
2022-10-26T14:37:50.116Z,100666.00
2022-10-26T14:42:55.784Z,100654.19
2022-10-26T14:47:59.608Z,100663.66
2022-10-26T14:53:14.927Z,100667.97
2022-10-26T14:58:32.990Z,100668.75
2022-10-26T15:03:38.536Z,100670.59
2022-10-26T15:08:56.321Z,100674.81
2022-10-26T15:14:00.343Z,100672.66
2022-10-26T15:19:16.018Z,100685.78
2022-10-26T15:24:38.638Z,100688.56
2022-10-26T15:29:47.107Z,100691.28
2022-10-26T15:35:07.514Z,100702.50
2022-10-26T15:40:11.194Z,100695.19
2022-10-26T15:45:27.882Z,100708.25
2022-10-26T15:50:31.014Z,100716.78
2022-10-26T15:55:33.916Z,100710.47
2022-10-26T16:00:37.275Z,100713.06
2022-10-26T16:05:40.279Z,100716.31
2022-10-26T16:10:43.620Z,100715.25
2022-10-26T16:15:47.056Z,100725.84
2022-10-26T16:20:49.763Z,100724.91
2022-10-26T16:25:52.643Z,100735.94
2022-10-26T16:31:03.596Z,100745.69
2022-10-26T16:36:07.348Z,100751.63
2022-10-26T16:41:14.591Z,100744.75
2022-10-26T16:46:20.089Z,100747.63
2022-10-26T16:51:24.875Z,100765.06
2022-10-26T16:56:29.132Z,100767.63
2022-10-26T17:01:32.466Z,100760.53
2022-10-26T17:06:35.555Z,100759.94
2022-10-26T17:11:38.473Z,100771.75
2022-10-26T17:16:41.506Z,100775.78
2022-10-26T17:21:44.558Z,100778.66
2022-10-26T17:26:47.580Z,100778.34
2022-10-26T17:31:50.367Z,100778.53
2022-10-26T17:36:53.554Z,100779.91
2022-10-26T17:41:56.733Z,100784.09
2022-10-26T17:47:00.002Z,100792.19
2022-10-26T17:52:02.751Z,100796.72
2022-10-26T17:57:05.639Z,100815.31
2022-10-26T18:02:10.213Z,100814.00
2022-10-26T18:07:13.326Z,100814.69
2022-10-26T18:12:16.082Z,100817.44
2022-10-26T18:17:19.255Z,100812.28
2022-10-26T18:22:22.028Z,100816.34
2022-10-26T18:27:24.782Z,100835.13
2022-10-26T18:32:27.339Z,100830.84
2022-10-26T18:37:30.250Z,100833.53
2022-10-26T18:42:33.052Z,100841.53
2022-10-26T18:47:35.936Z,100837.06
2022-10-26T18:52:38.693Z,100844.56
2022-10-26T18:57:41.446Z,100840.53
2022-10-26T19:02:44.894Z,100851.88
2022-10-26T19:07:49.984Z,100863.38
2022-10-26T19:12:53.271Z,100875.34
2022-10-26T19:17:57.952Z,100884.00
2022-10-26T19:23:00.734Z,100894.81
2022-10-26T19:28:03.657Z,100887.84
2022-10-26T19:33:06.433Z,100901.16
2022-10-26T19:38:09.215Z,100910.47
2022-10-26T19:43:12.627Z,100924.97
2022-10-26T19:48:15.395Z,100927.28
2022-10-26T19:53:18.607Z,100934.75
2022-10-26T19:58:21.477Z,100935.25
2022-10-26T20:03:24.814Z,100944.22
2022-10-26T20:08:28.119Z,100947.22
2022-10-26T20:13:31.342Z,100951.38
2022-10-26T20:18:34.873Z,100955.56
2022-10-26T20:23:37.830Z,100964.69
2022-10-26T20:28:45.685Z,100961.88
2022-10-26T20:33:52.781Z,100971.06
2022-10-26T20:38:55.885Z,100965.75
2022-10-26T20:43:59.056Z,100961.25
2022-10-26T20:49:02.160Z,100967.78
2022-10-26T20:54:33.837Z,100957.78
2022-10-26T21:00:03.834Z,100954.09
2022-10-26T21:05:07.119Z,100967.13
2022-10-26T21:10:10.161Z,100961.81
2022-10-26T21:15:12.875Z,100964.50
2022-10-26T21:20:15.604Z,100971.53
2022-10-26T21:25:18.602Z,100980.84
2022-10-26T21:30:21.794Z,100972.31
2022-10-26T21:35:24.596Z,100966.50
2022-10-26T21:40:27.372Z,100977.81
2022-10-26T21:45:30.178Z,100977.16
2022-10-26T21:50:32.774Z,100973.19
2022-10-26T21:55:35.473Z,100970.34
2022-10-26T22:00:38.080Z,100984.34
2022-10-26T22:05:45.032Z,100986.66
2022-10-26T22:10:48.767Z,101000.50
2022-10-26T22:16:24.950Z,101005.41
2022-10-26T22:21:31.988Z,101006.22
2022-10-26T22:26:36.583Z,101007.31
2022-10-26T22:31:40.557Z,101009.28
2022-10-26T22:36:43.975Z,101007.19
2022-10-26T22:41:49.181Z,101015.56
2022-10-26T22:46:51.948Z,101005.47
2022-10-26T22:51:54.702Z,101017.66
2022-10-26T22:56:57.602Z,101017.66
2022-10-26T23:02:00.513Z,101020.56
2022-10-26T23:07:03.551Z,101029.63
2022-10-26T23:12:06.387Z,101030.81
2022-10-26T23:17:10.027Z,101037.19
2022-10-26T23:22:12.841Z,101044.94
2022-10-26T23:27:15.560Z,101041.31
2022-10-26T23:32:18.682Z,101031.28
2022-10-26T23:37:21.433Z,101033.53
2022-10-26T23:42:24.217Z,101033.84
2022-10-26T23:47:26.946Z,101032.78
2022-10-26T23:52:29.727Z,101036.00
2022-10-26T23:57:32.289Z,101040.22
